< < Back
Terminal Aerodrome Forecast


Current Version              Previous Versions:   1  2  3  4  5  6  7  8  9  

Terminal Aerodrome Forecast

280
FTUS44 KBMX 041128
TAFANB
TAF
KANB 041128Z 0412/0512 12008KT 4SM -TSRA SCT040CB BKN050
      TEMPO 0412/0414 21010G18KT 2SM TSRA SCT025CB BKN035
     FM041900 24010KT 4SM SHRA VCTS OVC050CB
     FM050500 23003KT 6SM BR VCTS SCT015CB OVC025=



Latest METAR

249
SAUS70 KWBC 041900 RRB
MTRANB
METAR KANB 041853Z AUTO 25006KT 10SM CLR 28/21 A3004 RMK AO2 SLP165
T02830206


USA.gov is the U.S. government's official web portal to all federal, state and local government web resources and services.